createdAt,value
2022-08-20T00:00:06.893Z,101375.81
2022-08-20T00:00:41.149Z,101377.94
2022-08-20T00:01:12.662Z,101372.81
2022-08-20T00:01:44.858Z,101382.22
2022-08-20T00:02:16.627Z,101380.84
2022-08-20T00:02:50.822Z,101370.59
2022-08-20T00:03:29.111Z,101375.19
2022-08-20T00:04:01.718Z,101371.44
2022-08-20T00:04:33.228Z,101373.06
2022-08-20T00:05:04.872Z,101366.84
2022-08-20T00:05:38.791Z,101376.31
2022-08-20T00:06:14.729Z,101368.25
2022-08-20T00:06:46.233Z,101358.75
2022-08-20T00:07:17.951Z,101368.44
2022-08-20T00:07:49.551Z,101365.22
2022-08-20T00:08:21.812Z,101358.47
2022-08-20T00:08:53.235Z,101367.88
2022-08-20T00:09:24.675Z,101361.97
2022-08-20T00:10:01.452Z,101368.59
2022-08-20T00:10:33.518Z,101360.50
2022-08-20T00:11:05.652Z,101361.91
2022-08-20T00:11:37.677Z,101355.16
2022-08-20T00:12:09.857Z,101362.75
2022-08-20T00:12:44.696Z,101354.97
2022-08-20T00:13:18.070Z,101358.50
2022-08-20T00:13:51.510Z,101361.97
2022-08-20T00:14:23.033Z,101359.00
2022-08-20T00:14:54.493Z,101355.25
2022-08-20T00:15:28.428Z,101353.31
2022-08-20T00:15:59.941Z,101356.56
2022-08-20T00:16:32.667Z,101354.13
2022-08-20T00:17:04.278Z,101356.78
2022-08-20T00:17:38.812Z,101359.47
2022-08-20T00:18:10.514Z,101363.81
2022-08-20T00:18:44.365Z,101364.94
2022-08-20T00:19:15.837Z,101362.44
2022-08-20T00:19:47.288Z,101367.75
2022-08-20T00:20:19.565Z,101368.91
2022-08-20T00:20:51.954Z,101365.41
2022-08-20T00:21:25.468Z,101368.41
2022-08-20T00:21:58.169Z,101364.13
2022-08-20T00:22:30.768Z,101367.06
2022-08-20T00:23:03.136Z,101363.84
2022-08-20T00:23:39.656Z,101352.81
2022-08-20T00:24:11.076Z,101353.09
2022-08-20T00:24:42.846Z,101366.63
2022-08-20T00:25:14.591Z,101362.28
2022-08-20T00:25:46.542Z,101356.34
2022-08-20T00:26:19.048Z,101365.00
2022-08-20T00:26:52.257Z,101360.13
2022-08-20T00:27:24.387Z,101361.75
2022-08-20T00:27:56.783Z,101359.75
2022-08-20T00:28:28.279Z,101368.09
2022-08-20T00:28:59.740Z,101364.84
2022-08-20T00:29:31.560Z,101363.53
2022-08-20T00:30:04.828Z,101369.22
2022-08-20T00:30:36.532Z,101365.69
2022-08-20T00:31:09.269Z,101365.44
2022-08-20T00:31:40.698Z,101367.06
2022-08-20T00:32:12.288Z,101367.84
2022-08-20T00:32:44.736Z,101365.91
2022-08-20T00:33:17.488Z,101371.72
2022-08-20T00:33:49.127Z,101358.81
2022-08-20T00:34:20.548Z,101361.25
2022-08-20T00:34:51.989Z,101358.50
2022-08-20T00:35:26.149Z,101366.84
2022-08-20T00:35:57.759Z,101364.38
2022-08-20T00:36:32.409Z,101363.31
2022-08-20T00:37:04.804Z,101363.09
2022-08-20T00:37:36.280Z,101368.47
2022-08-20T00:38:08.249Z,101355.03
2022-08-20T00:38:40.808Z,101363.69
2022-08-20T00:39:12.366Z,101357.19
2022-08-20T00:39:44.151Z,101366.13
2022-08-20T00:40:22.746Z,101365.31
2022-08-20T00:40:58.136Z,101365.56
2022-08-20T00:41:29.834Z,101364.22
2022-08-20T00:42:01.528Z,101352.88
2022-08-20T00:42:40.020Z,101365.00
2022-08-20T00:43:25.582Z,101365.91
2022-08-20T00:44:05.880Z,101364.34
2022-08-20T00:44:37.359Z,101368.59
2022-08-20T00:45:09.570Z,101371.34
2022-08-20T00:45:41.000Z,101363.81
2022-08-20T00:46:14.159Z,101372.47
2022-08-20T00:46:46.530Z,101374.09
2022-08-20T00:47:18.052Z,101363.84
2022-08-20T00:47:51.458Z,101375.16
2022-08-20T00:48:25.323Z,101374.09
2022-08-20T00:48:58.586Z,101371.34
2022-08-20T00:49:32.053Z,101372.31
2022-08-20T00:50:06.361Z,101367.97
2022-08-20T00:50:37.813Z,101371.72
2022-08-20T00:51:09.235Z,101374.09
2022-08-20T00:51:42.389Z,101369.81
2022-08-20T00:52:15.424Z,101372.28
2022-08-20T00:52:49.385Z,101371.22
2022-08-20T00:53:22.914Z,101371.22
2022-08-20T00:53:56.149Z,101373.34
2022-08-20T00:54:50.764Z,101375.00
2022-08-20T00:55:24.410Z,101369.56
2022-08-20T00:55:58.026Z,101364.13
2022-08-20T00:56:31.174Z,101372.16
2022-08-20T00:57:04.874Z,101375.16
2022-08-20T00:57:59.806Z,101368.41
2022-08-20T00:58:33.612Z,101366.66
2022-08-20T00:59:06.230Z,101376.44
2022-08-20T00:59:40.031Z,101376.44
2022-08-20T01:00:14.063Z,101372.97
2022-08-20T01:00:46.766Z,101375.13
2022-08-20T01:01:19.294Z,101380.25
2022-08-20T01:01:55.903Z,101378.38
2022-08-20T01:02:28.377Z,101378.25
2022-08-20T01:03:00.759Z,101377.25
2022-08-20T01:03:33.193Z,101378.63
2022-08-20T01:04:05.525Z,101376.19
2022-08-20T01:04:37.360Z,101382.09
2022-08-20T01:05:10.126Z,101389.03
2022-08-20T01:05:44.716Z,101377.94
2022-08-20T01:06:16.304Z,101377.91
2022-08-20T01:06:48.701Z,101382.22
2022-08-20T01:07:20.816Z,101374.69
2022-08-20T01:07:53.816Z,101378.41
2022-08-20T01:08:26.849Z,101377.84
2022-08-20T01:09:02.245Z,101376.75
2022-08-20T01:09:58.174Z,101378.06
2022-08-20T01:10:27.743Z,101376.78
2022-08-20T01:11:10.407Z,101381.41
2022-08-20T01:11:41.849Z,101377.19
2022-08-20T01:12:13.812Z,101375.94
2022-08-20T01:12:46.429Z,101377.03
2022-08-20T01:13:20.472Z,101379.50
2022-08-20T01:13:51.960Z,101379.22
2022-08-20T01:14:28.556Z,101376.50
2022-08-20T01:15:01.439Z,101382.41
2022-08-20T01:15:32.875Z,101373.75
2022-08-20T01:16:05.147Z,101376.94
2022-08-20T01:16:36.630Z,101382.75
2022-08-20T01:17:17.674Z,101377.91
2022-08-20T01:17:50.583Z,101372.25
2022-08-20T01:18:25.045Z,101375.84
2022-08-20T01:18:57.691Z,101380.22
2022-08-20T01:19:30.650Z,101379.41
2022-08-20T01:20:02.132Z,101379.97
2022-08-20T01:20:34.762Z,101386.09
2022-08-20T01:21:06.384Z,101389.59
2022-08-20T01:21:37.953Z,101387.25
2022-08-20T01:22:28.103Z,101386.72
2022-08-20T01:23:23.284Z,101382.41
2022-08-20T01:23:55.053Z,101388.06
2022-08-20T01:24:33.103Z,101389.34
2022-08-20T01:25:06.464Z,101391.56
2022-08-20T01:25:40.903Z,101393.19
2022-08-20T01:26:14.471Z,101389.69
2022-08-20T01:26:46.145Z,101387.25
2022-08-20T01:27:18.007Z,101386.72
2022-08-20T01:27:55.113Z,101387.03
2022-08-20T01:28:32.625Z,101385.13
2022-08-20T01:29:08.650Z,101379.78
2022-08-20T01:29:40.127Z,101387.88
2022-08-20T01:30:14.045Z,101388.13
2022-08-20T01:30:45.507Z,101384.66
2022-08-20T01:31:18.491Z,101382.78
2022-08-20T01:31:51.612Z,101390.06
2022-08-20T01:32:23.075Z,101391.69
2022-08-20T01:32:54.616Z,101386.81
2022-08-20T01:33:26.148Z,101386.25
2022-08-20T01:33:58.211Z,101394.84
2022-08-20T01:34:30.068Z,101391.59
2022-08-20T01:35:01.676Z,101388.34
2022-08-20T01:35:39.932Z,101381.94
2022-08-20T01:36:12.829Z,101383.78
2022-08-20T01:36:46.594Z,101380.69
2022-08-20T01:37:18.179Z,101384.03
2022-08-20T01:37:49.773Z,101378.06
2022-08-20T01:38:21.324Z,101385.09
2022-08-20T01:38:54.679Z,101379.06
2022-08-20T01:39:30.550Z,101382.84
2022-08-20T01:40:04.003Z,101373.38
2022-08-20T01:40:40.617Z,101379.56
2022-08-20T01:41:31.072Z,101386.03
2022-08-20T01:42:08.550Z,101381.13
2022-08-20T01:42:58.514Z,101388.38
2022-08-20T01:43:32.276Z,101392.47
2022-08-20T01:44:09.205Z,101387.13
2022-08-20T01:44:50.072Z,101387.31
2022-08-20T01:45:21.523Z,101387.88
2022-08-20T01:45:58.553Z,101390.88
2022-08-20T01:46:32.853Z,101389.50
2022-08-20T01:47:10.053Z,101390.56
2022-08-20T01:47:42.387Z,101396.78
2022-08-20T01:48:16.263Z,101395.66
2022-08-20T01:48:47.887Z,101389.97
2022-08-20T01:49:22.843Z,101383.25
2022-08-20T01:49:55.987Z,101393.72
2022-08-20T01:50:28.168Z,101389.47
2022-08-20T01:51:19.901Z,101390.81
2022-08-20T01:51:55.055Z,101395.97
2022-08-20T01:52:45.248Z,101394.03
2022-08-20T01:53:16.930Z,101395.47
2022-08-20T01:53:49.559Z,101389.25
2022-08-20T01:54:21.342Z,101395.16
2022-08-20T01:54:53.034Z,101393.22
2022-08-20T01:55:26.685Z,101391.38
2022-08-20T01:55:58.212Z,101394.66
2022-08-20T01:56:30.852Z,101393.56
2022-08-20T01:57:07.135Z,101391.69
2022-08-20T01:57:38.652Z,101401.47
2022-08-20T01:58:10.121Z,101393.69
2022-08-20T01:58:42.929Z,101392.38
2022-08-20T01:59:14.361Z,101389.16
2022-08-20T01:59:46.146Z,101394.84
2022-08-20T02:00:19.601Z,101396.41
2022-08-20T02:00:52.247Z,101395.00
2022-08-20T02:01:26.473Z,101395.88
2022-08-20T02:01:58.810Z,101393.53
2022-08-20T02:02:30.340Z,101394.53
2022-08-20T02:03:03.227Z,101391.53
2022-08-20T02:03:38.801Z,101388.03
2022-08-20T02:04:15.407Z,101385.38
2022-08-20T02:04:47.310Z,101391.38
2022-08-20T02:05:19.238Z,101388.69
2022-08-20T02:05:50.687Z,101383.91
2022-08-20T02:06:25.543Z,101388.47
2022-08-20T02:06:58.836Z,101381.22
2022-08-20T02:07:31.549Z,101388.19
2022-08-20T02:08:03.881Z,101382.75
2022-08-20T02:08:35.383Z,101388.75
2022-08-20T02:09:07.664Z,101385.28
2022-08-20T02:09:39.473Z,101382.13
2022-08-20T02:10:11.995Z,101394.75
2022-08-20T02:10:46.150Z,101387.78
2022-08-20T02:11:17.584Z,101384.28
2022-08-20T02:11:49.342Z,101386.16
2022-08-20T02:12:20.838Z,101385.09
2022-08-20T02:12:53.092Z,101380.78
2022-08-20T02:13:25.360Z,101385.44
2022-08-20T02:13:58.112Z,101383.78
2022-08-20T02:14:30.225Z,101384.03
2022-08-20T02:15:02.559Z,101384.47
2022-08-20T02:15:37.234Z,101382.31
2022-08-20T02:16:09.248Z,101390.31
2022-08-20T02:16:43.652Z,101392.47
2022-08-20T02:17:26.132Z,101383.81
2022-08-20T02:17:57.844Z,101378.41
2022-08-20T02:18:29.287Z,101377.66
2022-08-20T02:19:02.031Z,101373.03
2022-08-20T02:19:35.043Z,101384.38
2022-08-20T02:20:10.899Z,101382.75
2022-08-20T02:20:43.388Z,101376.84
2022-08-20T02:21:14.825Z,101374.69
2022-08-20T02:21:49.410Z,101377.94
2022-08-20T02:22:22.088Z,101373.94
2022-08-20T02:22:58.707Z,101380.69
2022-08-20T02:23:30.495Z,101383.72
2022-08-20T02:24:02.409Z,101385.84
2022-08-20T02:24:35.682Z,101381.22
2022-08-20T02:25:08.002Z,101383.91
2022-08-20T02:25:40.349Z,101381.22
2022-08-20T02:26:11.878Z,101389.84
2022-08-20T02:26:43.396Z,101386.59
2022-08-20T02:27:14.864Z,101382.56
2022-08-20T02:27:46.691Z,101389.84
2022-08-20T02:28:19.783Z,101386.09
2022-08-20T02:28:51.541Z,101384.97
2022-08-20T02:29:23.811Z,101390.31
2022-08-20T02:29:55.220Z,101386.50
2022-08-20T02:30:29.204Z,101395.66
2022-08-20T02:31:01.624Z,101381.16
2022-08-20T02:31:35.020Z,101387.94
2022-08-20T02:32:32.190Z,101385.63
2022-08-20T02:32:59.864Z,101391.59
2022-08-20T02:33:31.404Z,101391.59
2022-08-20T02:34:21.750Z,101390.28
2022-08-20T02:34:54.411Z,101390.28
2022-08-20T02:35:26.127Z,101389.19
2022-08-20T02:35:57.604Z,101391.38
2022-08-20T02:36:29.368Z,101390.00
2022-08-20T02:37:01.336Z,101392.47
2022-08-20T02:37:32.847Z,101392.91
2022-08-20T02:38:04.265Z,101391.28
2022-08-20T02:38:35.757Z,101384.81
2022-08-20T02:39:09.535Z,101386.41
2022-08-20T02:39:41.414Z,101387.78
2022-08-20T02:40:14.636Z,101394.84
2022-08-20T02:40:46.461Z,101393.47
2022-08-20T02:41:18.498Z,101392.72
2022-08-20T02:41:50.265Z,101395.66
2022-08-20T02:42:21.937Z,101397.66
2022-08-20T02:42:53.918Z,101392.53
2022-08-20T02:43:25.411Z,101392.72
2022-08-20T02:43:57.139Z,101399.69
2022-08-20T02:44:28.648Z,101392.97
2022-08-20T02:45:00.118Z,101390.75
2022-08-20T02:45:36.090Z,101394.81
2022-08-20T02:46:08.021Z,101394.59
2022-08-20T02:46:39.508Z,101399.75
2022-08-20T02:47:12.766Z,101399.25
2022-08-20T02:47:45.467Z,101389.03
2022-08-20T02:48:21.348Z,101393.91
2022-08-20T02:48:53.479Z,101391.78
2022-08-20T02:49:24.947Z,101394.53
2022-08-20T02:49:57.937Z,101400.50
2022-08-20T02:50:29.632Z,101391.91
2022-08-20T02:51:01.979Z,101402.38
2022-08-20T02:51:33.620Z,101399.50
2022-08-20T02:52:05.138Z,101396.69
2022-08-20T02:52:36.575Z,101398.88
2022-08-20T02:53:08.005Z,101403.13
2022-08-20T02:53:41.214Z,101401.44
2022-08-20T02:54:12.842Z,101400.31
2022-08-20T02:54:44.655Z,101395.56
2022-08-20T02:55:23.133Z,101394.25
2022-08-20T02:56:00.527Z,101400.63
2022-08-20T02:56:31.982Z,101390.66
2022-08-20T02:57:04.394Z,101390.41
2022-08-20T02:57:35.904Z,101396.81
2022-08-20T02:58:07.371Z,101393.91
2022-08-20T02:58:39.137Z,101398.81
2022-08-20T02:59:10.759Z,101395.56
2022-08-20T02:59:52.322Z,101396.53
2022-08-20T03:00:23.881Z,101390.66
2022-08-20T03:00:56.687Z,101386.28
2022-08-20T03:01:28.202Z,101386.28
2022-08-20T03:02:00.320Z,101389.28
2022-08-20T03:02:32.512Z,101383.63
2022-08-20T03:03:04.031Z,101384.38
2022-08-20T03:03:35.501Z,101385.72
2022-08-20T03:04:06.968Z,101391.97
2022-08-20T03:04:38.388Z,101385.59
2022-08-20T03:05:10.036Z,101375.63
2022-08-20T03:05:43.561Z,101382.13
2022-08-20T03:06:16.120Z,101380.25
2022-08-20T03:06:47.641Z,101388.97
2022-08-20T03:07:19.099Z,101387.59
2022-08-20T03:07:53.806Z,101390.47
2022-08-20T03:08:25.581Z,101385.66
2022-08-20T03:08:57.319Z,101393.78
2022-08-20T03:09:28.763Z,101387.34
2022-08-20T03:10:00.628Z,101393.28
2022-08-20T03:10:33.569Z,101395.94
2022-08-20T03:11:05.303Z,101391.09
2022-08-20T03:11:36.909Z,101392.41
2022-08-20T03:12:08.583Z,101390.06
2022-08-20T03:12:40.356Z,101390.56
2022-08-20T03:13:12.665Z,101398.00
2022-08-20T03:13:44.167Z,101389.34
2022-08-20T03:14:15.596Z,101395.22
2022-08-20T03:14:47.051Z,101385.78
2022-08-20T03:15:18.720Z,101391.97
2022-08-20T03:15:55.356Z,101388.72
2022-08-20T03:16:30.101Z,101387.09
2022-08-20T03:17:01.569Z,101385.16
2022-08-20T03:17:33.034Z,101389.72
2022-08-20T03:18:04.456Z,101382.69
2022-08-20T03:18:37.633Z,101388.09
2022-08-20T03:19:09.152Z,101385.53
2022-08-20T03:19:40.571Z,101384.97
2022-08-20T03:20:12.522Z,101387.09
2022-08-20T03:20:46.018Z,101388.22
2022-08-20T03:21:18.361Z,101386.66
2022-08-20T03:21:50.013Z,101387.22
2022-08-20T03:22:21.461Z,101391.84
2022-08-20T03:22:53.120Z,101382.38
2022-08-20T03:23:24.683Z,101379.44
2022-08-20T03:23:56.111Z,101378.63
2022-08-20T03:24:27.541Z,101389.91
2022-08-20T03:24:58.959Z,101380.91
2022-08-20T03:25:30.403Z,101376.75
2022-08-20T03:26:02.880Z,101380.91
2022-08-20T03:26:36.008Z,101382.53
2022-08-20T03:27:07.425Z,101385.16
2022-08-20T03:27:39.847Z,101376.00
2022-08-20T03:28:11.518Z,101381.41
2022-08-20T03:28:43.043Z,101380.09
2022-08-20T03:29:14.563Z,101382.28
2022-08-20T03:29:46.018Z,101386.84
2022-08-20T03:30:17.677Z,101373.56
2022-08-20T03:30:50.357Z,101380.28
2022-08-20T03:31:21.872Z,101378.06
2022-08-20T03:31:53.322Z,101384.53
2022-08-20T03:32:24.824Z,101388.69
2022-08-20T03:32:57.978Z,101374.19
2022-08-20T03:33:31.504Z,101381.19
2022-08-20T03:34:03.024Z,101376.94
2022-08-20T03:34:34.779Z,101380.19
2022-08-20T03:35:06.976Z,101377.00
2022-08-20T03:35:39.143Z,101384.84
2022-08-20T03:36:10.627Z,101380.84
2022-08-20T03:36:42.684Z,101383.88
2022-08-20T03:37:14.365Z,101378.81
2022-08-20T03:37:54.322Z,101389.75
2022-08-20T03:38:33.195Z,101383.97
2022-08-20T03:39:06.257Z,101381.75
2022-08-20T03:39:38.088Z,101389.09
2022-08-20T03:40:11.613Z,101380.22
2022-08-20T03:40:43.058Z,101382.91
2022-08-20T03:41:14.564Z,101379.97
2022-08-20T03:41:46.040Z,101389.41
2022-08-20T03:42:17.520Z,101388.03
2022-08-20T03:42:48.945Z,101388.78
2022-08-20T03:43:20.546Z,101381.75
2022-08-20T03:43:52.629Z,101390.41
2022-08-20T03:44:24.198Z,101390.03
2022-08-20T03:44:58.628Z,101392.06
2022-08-20T03:45:32.457Z,101400.47
2022-08-20T03:46:04.126Z,101394.59
2022-08-20T03:46:36.009Z,101385.63
2022-08-20T03:47:09.377Z,101393.47
2022-08-20T03:47:41.515Z,101399.06
2022-08-20T03:48:15.268Z,101397.69
2022-08-20T03:48:46.807Z,101403.06
2022-08-20T03:49:20.935Z,101396.22
2022-08-20T03:49:52.374Z,101394.25
2022-08-20T03:50:26.249Z,101394.97
2022-08-20T03:51:00.741Z,101391.94
2022-08-20T03:51:34.358Z,101396.69
2022-08-20T03:52:24.381Z,101396.88
2022-08-20T03:52:55.965Z,101393.28
2022-08-20T03:53:31.585Z,101392.38
2022-08-20T03:54:03.117Z,101394.72
2022-08-20T03:54:34.695Z,101394.97
2022-08-20T03:55:07.537Z,101395.09
2022-08-20T03:55:39.940Z,101404.13
2022-08-20T03:56:12.289Z,101387.53
2022-08-20T03:56:43.723Z,101395.00
2022-08-20T03:57:15.579Z,101399.25
2022-08-20T03:57:54.618Z,101395.97
2022-08-20T03:58:30.038Z,101396.16
2022-08-20T03:59:08.321Z,101399.75
2022-08-20T03:59:39.876Z,101391.69
2022-08-20T04:00:13.455Z,101403.28
2022-08-20T04:00:49.313Z,101394.38
2022-08-20T04:01:45.646Z,101400.34
2022-08-20T04:02:12.383Z,101403.88
2022-08-20T04:02:43.948Z,101402.34
2022-08-20T04:03:15.521Z,101407.25
2022-08-20T04:03:48.497Z,101405.97
2022-08-20T04:04:22.102Z,101409.25
2022-08-20T04:04:55.083Z,101403.66
2022-08-20T04:05:28.337Z,101410.88
2022-08-20T04:05:59.950Z,101410.97
2022-08-20T04:06:31.685Z,101406.16
2022-08-20T04:07:16.906Z,101406.75
2022-08-20T04:07:48.333Z,101409.50
2022-08-20T04:08:21.330Z,101411.16
2022-08-20T04:08:54.070Z,101417.19
2022-08-20T04:09:25.486Z,101411.81
2022-08-20T04:09:57.489Z,101413.81
2022-08-20T04:10:28.923Z,101408.75
2022-08-20T04:11:00.499Z,101421.13
2022-08-20T04:11:33.527Z,101416.91
2022-08-20T04:12:05.044Z,101414.69
2022-08-20T04:12:48.715Z,101418.63
2022-08-20T04:13:24.947Z,101413.56
2022-08-20T04:13:56.483Z,101413.69
2022-08-20T04:14:27.961Z,101422.69
2022-08-20T04:15:01.006Z,101412.50
2022-08-20T04:15:34.597Z,101418.44
2022-08-20T04:16:11.288Z,101415.44
2022-08-20T04:16:46.478Z,101416.31
2022-08-20T04:17:20.600Z,101411.28
2022-08-20T04:17:54.219Z,101419.84
2022-08-20T04:18:26.240Z,101419.25
2022-08-20T04:19:01.803Z,101417.31
2022-08-20T04:19:34.366Z,101415.09
2022-08-20T04:20:06.133Z,101416.13
2022-08-20T04:20:38.997Z,101414.50
2022-08-20T04:21:10.674Z,101417.69
2022-08-20T04:21:42.111Z,101418.72
2022-08-20T04:22:16.619Z,101422.69
2022-08-20T04:22:58.603Z,101414.31
2022-08-20T04:23:31.442Z,101413.72
2022-08-20T04:24:03.869Z,101420.16
2022-08-20T04:24:35.332Z,101416.91
2022-08-20T04:25:08.868Z,101412.59
2022-08-20T04:25:42.531Z,101410.13
2022-08-20T04:26:14.935Z,101409.31
2022-08-20T04:26:46.360Z,101404.03
2022-08-20T04:27:17.797Z,101410.56
2022-08-20T04:27:51.987Z,101407.28
2022-08-20T04:28:28.732Z,101406.81
2022-08-20T04:29:00.188Z,101411.25
2022-08-20T04:29:31.865Z,101412.88
2022-08-20T04:30:05.094Z,101411.94
2022-08-20T04:30:36.798Z,101408.25
2022-08-20T04:31:08.322Z,101413.72
2022-08-20T04:31:39.785Z,101410.47
2022-08-20T04:32:12.227Z,101408.91
2022-08-20T04:32:43.867Z,101412.41
2022-08-20T04:33:17.175Z,101412.41
2022-08-20T04:33:54.101Z,101412.97
2022-08-20T04:34:25.952Z,101407.84
2022-08-20T04:34:58.692Z,101408.50
2022-08-20T04:35:30.629Z,101406.03
2022-08-20T04:36:02.894Z,101409.00
2022-08-20T04:36:35.183Z,101406.06
2022-08-20T04:37:16.575Z,101411.44
2022-08-20T04:37:48.520Z,101414.03
2022-08-20T04:38:20.907Z,101416.72
2022-08-20T04:38:52.376Z,101418.25
2022-08-20T04:39:23.881Z,101419.19
2022-08-20T04:40:14.049Z,101422.47
2022-08-20T04:40:55.698Z,101426.44
2022-08-20T04:41:27.259Z,101419.88
2022-08-20T04:41:58.849Z,101416.25
2022-08-20T04:42:30.275Z,101417.06
2022-08-20T04:43:02.245Z,101417.72
2022-08-20T04:43:35.159Z,101417.41
2022-08-20T04:44:06.586Z,101424.00
2022-08-20T04:44:39.826Z,101429.47
2022-08-20T04:45:11.320Z,101425.25
2022-08-20T04:45:42.851Z,101426.91
2022-08-20T04:46:14.463Z,101426.91
2022-08-20T04:46:45.899Z,101422.69
2022-08-20T04:47:21.401Z,101426.69
2022-08-20T04:48:09.629Z,101428.09
2022-08-20T04:48:49.078Z,101426.78
2022-08-20T04:49:25.027Z,101429.47
2022-08-20T04:50:00.082Z,101434.28
2022-08-20T04:50:39.211Z,101435.00
2022-08-20T04:51:12.389Z,101435.91
2022-08-20T04:51:43.855Z,101441.88
2022-08-20T04:52:15.283Z,101432.75
2022-08-20T04:52:49.078Z,101433.09
2022-08-20T04:53:25.653Z,101430.06
2022-08-20T04:53:57.799Z,101433.47
2022-08-20T04:54:29.276Z,101429.94
2022-08-20T04:55:00.715Z,101436.63
2022-08-20T04:55:33.248Z,101439.56
2022-08-20T04:56:04.852Z,101436.31
2022-08-20T04:56:39.632Z,101444.94
2022-08-20T04:57:11.246Z,101438.59
2022-08-20T04:57:43.271Z,101439.78
2022-08-20T04:58:16.835Z,101444.78
2022-08-20T04:58:48.802Z,101443.66
2022-08-20T04:59:20.221Z,101442.00
2022-08-20T04:59:55.575Z,101441.19
2022-08-20T05:00:31.774Z,101446.59
2022-08-20T05:01:05.136Z,101444.38
2022-08-20T05:01:36.673Z,101448.22
2022-08-20T05:02:08.292Z,101449.34
2022-08-20T05:02:39.999Z,101454.66
2022-08-20T05:03:12.075Z,101451.00
2022-08-20T05:03:43.583Z,101446.78
2022-08-20T05:04:15.175Z,101454.72
2022-08-20T05:04:47.642Z,101446.78
2022-08-20T05:05:19.560Z,101446.78
2022-08-20T05:05:51.857Z,101450.72
2022-08-20T05:06:25.429Z,101459.28
2022-08-20T05:06:56.868Z,101456.03
2022-08-20T05:07:28.396Z,101448.78
2022-08-20T05:08:00.899Z,101446.50
2022-08-20T05:08:33.409Z,101451.88
2022-08-20T05:09:04.992Z,101454.41
2022-08-20T05:09:43.869Z,101448.78
2022-08-20T05:10:17.097Z,101448.78
2022-08-20T05:10:48.846Z,101452.13
2022-08-20T05:11:35.344Z,101456.69
2022-08-20T05:12:08.248Z,101454.19
2022-08-20T05:12:43.925Z,101457.44
2022-08-20T05:13:28.633Z,101455.56
2022-08-20T05:14:00.084Z,101462.59
2022-08-20T05:14:31.512Z,101454.50
2022-08-20T05:15:03.628Z,101458.75
2022-08-20T05:15:35.962Z,101462.50
2022-08-20T05:16:08.142Z,101461.69
2022-08-20T05:16:40.416Z,101461.38
2022-08-20T05:17:14.640Z,101469.34
2022-08-20T05:17:46.145Z,101462.31
2022-08-20T05:18:18.983Z,101465.75
2022-08-20T05:18:52.833Z,101464.34
2022-08-20T05:19:24.483Z,101458.72
2022-08-20T05:19:55.932Z,101462.81
2022-08-20T05:20:31.752Z,101463.63
2022-08-20T05:21:06.287Z,101457.41
2022-08-20T05:21:38.084Z,101460.44
2022-08-20T05:22:09.510Z,101465.94
2022-08-20T05:22:40.958Z,101466.19
2022-08-20T05:23:13.289Z,101457.94
2022-08-20T05:23:44.797Z,101466.91
2022-08-20T05:24:16.478Z,101459.06
2022-08-20T05:24:47.905Z,101457.44
2022-08-20T05:25:21.227Z,101461.03
2022-08-20T05:25:52.732Z,101460.03
2022-08-20T05:26:26.377Z,101466.81
2022-08-20T05:26:59.343Z,101458.50
2022-08-20T05:27:31.057Z,101462.34
2022-08-20T05:28:07.496Z,101466.19
2022-08-20T05:28:52.809Z,101467.56
2022-08-20T05:29:29.975Z,101463.56
2022-08-20T05:30:07.306Z,101463.06
2022-08-20T05:30:43.017Z,101464.19
2022-08-20T05:31:15.293Z,101469.19
2022-08-20T05:31:46.728Z,101472.91
2022-08-20T05:32:18.208Z,101464.38
2022-08-20T05:32:50.447Z,101469.00
2022-08-20T05:33:25.628Z,101454.47
2022-08-20T05:33:57.885Z,101458.56
2022-08-20T05:34:29.312Z,101466.22
2022-08-20T05:35:01.421Z,101455.66
2022-08-20T05:35:38.550Z,101462.88
2022-08-20T05:36:10.145Z,101460.88
2022-08-20T05:36:49.300Z,101458.34
2022-08-20T05:37:20.989Z,101459.00
2022-08-20T05:37:52.644Z,101455.53
2022-08-20T05:38:26.390Z,101460.13
2022-08-20T05:38:57.954Z,101459.69
2022-08-20T05:39:29.411Z,101457.56
2022-08-20T05:40:00.903Z,101459.69
2022-08-20T05:40:34.218Z,101462.97
2022-08-20T05:41:05.942Z,101457.03
2022-08-20T05:41:38.370Z,101457.72
2022-08-20T05:42:11.163Z,101459.91
2022-08-20T05:42:43.415Z,101455.56
2022-08-20T05:43:14.869Z,101469.69
2022-08-20T05:43:46.336Z,101469.97
2022-08-20T05:44:23.444Z,101471.41
2022-08-20T05:44:55.088Z,101470.13
2022-08-20T05:45:26.579Z,101468.59
2022-08-20T05:45:58.501Z,101470.66
2022-08-20T05:46:31.486Z,101473.41
2022-08-20T05:47:04.438Z,101477.75
2022-08-20T05:47:42.662Z,101471.28
2022-08-20T05:48:15.697Z,101477.97
2022-08-20T05:48:47.143Z,101473.34
2022-08-20T05:49:20.251Z,101467.03
2022-08-20T05:49:52.092Z,101477.72
2022-08-20T05:50:23.682Z,101473.75
2022-08-20T05:50:55.220Z,101478.19
2022-08-20T05:51:27.320Z,101473.66
2022-08-20T05:51:59.215Z,101481.53
2022-08-20T05:52:31.143Z,101474.50
2022-08-20T05:53:03.004Z,101491.50
2022-08-20T05:53:34.446Z,101481.28
2022-08-20T05:54:06.730Z,101481.53
2022-08-20T05:54:38.306Z,101479.91
2022-08-20T05:55:10.306Z,101485.00
2022-08-20T05:55:41.880Z,101481.94
2022-08-20T05:56:13.426Z,101480.41
2022-08-20T05:56:44.871Z,101482.00
2022-08-20T05:57:19.961Z,101480.06
2022-08-20T05:57:53.164Z,101482.00
2022-08-20T05:58:26.460Z,101480.13
2022-08-20T05:58:59.783Z,101486.38
2022-08-20T05:59:31.221Z,101486.59
2022-08-20T06:00:05.134Z,101482.88
2022-08-20T06:00:42.954Z,101481.19
2022-08-20T06:01:14.419Z,101481.47
2022-08-20T06:01:45.944Z,101480.38
2022-08-20T06:02:35.864Z,101474.59
2022-08-20T06:03:26.007Z,101479.59
2022-08-20T06:04:16.067Z,101476.06
2022-08-20T06:04:47.504Z,101484.00
2022-08-20T06:05:27.668Z,101479.16
2022-08-20T06:05:59.253Z,101485.25
2022-08-20T06:06:45.214Z,101487.66
2022-08-20T06:07:17.962Z,101485.00
2022-08-20T06:07:50.818Z,101482.94
2022-08-20T06:08:26.224Z,101480.78
2022-08-20T06:08:57.662Z,101485.97
2022-08-20T06:09:31.982Z,101486.25
2022-08-20T06:10:04.408Z,101492.53
2022-08-20T06:10:36.119Z,101491.19
2022-08-20T06:11:08.059Z,101485.22
2022-08-20T06:11:39.554Z,101491.44
2022-08-20T06:12:11.073Z,101490.91
2022-08-20T06:12:44.434Z,101480.56
2022-08-20T06:13:15.879Z,101484.59
2022-08-20T06:13:47.439Z,101483.53
2022-08-20T06:14:19.042Z,101489.22
2022-08-20T06:14:50.566Z,101487.06
2022-08-20T06:15:22.484Z,101487.31
2022-08-20T06:15:55.846Z,101490.03
2022-08-20T06:16:29.033Z,101491.97
2022-08-20T06:17:02.345Z,101495.03
2022-08-20T06:17:39.401Z,101487.28
2022-08-20T06:18:27.793Z,101485.72
2022-08-20T06:19:00.513Z,101483.31
2022-08-20T06:19:35.077Z,101487.38
2022-08-20T06:20:07.879Z,101484.94
2022-08-20T06:20:39.675Z,101484.38
2022-08-20T06:21:11.150Z,101488.16
2022-08-20T06:21:42.687Z,101486.22
2022-08-20T06:22:18.349Z,101496.00